Time;durP1;ratioP1;P1;durP2;ratioP2;P2;SDS_P1;SDS_P2;PMS_P1;PMS_P2;Temp;Humidity;BMP_temperature;BMP_pressure;BME280_temperature;BME280_humidity;BME280_pressure;Samples;Min_cycle;Max_cycle;Signal;HPM_P1;HPM_P2
2023/03/14 00:00:28;;;;;;;11.43;3.75;;;;;;;;;;5021952;28;20205;-66
2023/03/14 00:02:53;;;;;;;10.07;4.28;;;;;;;;;;5015921;28;20202;-66
2023/03/14 00:05:19;;;;;;;9.30;3.35;;;;;;;;;;5033301;28;20582;-65
2023/03/14 00:07:44;;;;;;;11.90;3.28;;;;;;;;;;5026708;28;20214;-65
2023/03/14 00:10:13;;;;;;;10.27;2.83;;;;;;;;;;5021809;28;20186;-66
2023/03/14 00:12:39;;;;;;;10.13;3.22;;;;;;;;;;5027621;28;20242;-66
2023/03/14 00:15:06;;;;;;;8.82;2.95;;;;;;;;;;5011414;28;20201;-66
2023/03/14 00:17:33;;;;;;;14.35;3.10;;;;;;;;;;5017772;28;20277;-66
2023/03/14 00:20:04;;;;;;;9.27;2.65;;;;;;;;;;5026099;28;20252;-66
2023/03/14 00:22:31;;;;;;;8.45;2.85;;;;;;;;;;5015406;28;20292;-67
2023/03/14 00:24:56;;;;;;;8.95;2.65;;;;;;;;;;5023292;28;20271;-67
2023/03/14 00:27:22;;;;;;;7.70;2.42;;;;;;;;;;5024201;28;20238;-66
2023/03/14 00:29:47;;;;;;;8.82;2.58;;;;;;;;;;5025710;28;20201;-66
2023/03/14 00:32:12;;;;;;;8.63;2.42;;;;;;;;;;5023940;28;20646;-66
2023/03/14 00:34:38;;;;;;;9.02;3.13;;;;;;;;;;5017371;28;20194;-66
2023/03/14 00:37:03;;;;;;;8.27;2.28;;;;;;;;;;5018511;28;20293;-66
2023/03/14 00:39:29;;;;;;;7.65;2.50;;;;;;;;;;5024946;28;20556;-66
2023/03/14 00:41:54;;;;;;;8.57;2.40;;;;;;;;;;5019663;28;20194;-66
2023/03/14 00:44:19;;;;;;;9.80;2.50;;;;;;;;;;5018605;28;20732;-66
2023/03/14 00:46:45;;;;;;;6.82;2.15;;;;;;;;;;5031965;28;20267;-66
2023/03/14 00:49:10;;;;;;;9.15;2.67;;;;;;;;;;5020961;28;20190;-66
2023/03/14 00:51:35;;;;;;;9.13;2.30;;;;;;;;;;5023476;28;20197;-66
2023/03/14 00:54:01;;;;;;;8.48;2.42;;;;;;;;;;5022482;28;20208;-66
2023/03/14 00:56:26;;;;;;;7.32;2.08;;;;;;;;;;5015298;28;20205;-66
2023/03/14 00:58:55;;;;;;;5.95;2.05;;;;;;;;;;5024870;28;20240;-66
2023/03/14 01:01:21;;;;;;;7.13;2.00;;;;;;;;;;5018008;28;20233;-66
2023/03/14 01:03:47;;;;;;;6.50;2.17;;;;;;;;;;5011234;28;20233;-66
2023/03/14 01:06:24;;;;;;;7.47;2.22;;;;;;;;;;5019099;28;20579;-66
2023/03/14 01:08:50;;;;;;;7.80;2.50;;;;;;;;;;5018049;28;20210;-66
2023/03/14 01:11:25;;;;;;;6.82;2.03;;;;;;;;;;5024145;28;20634;-66
2023/03/14 01:13:51;;;;;;;7.47;2.17;;;;;;;;;;5023082;28;20193;-66
2023/03/14 01:16:19;;;;;;;6.07;2.00;;;;;;;;;;5029660;28;20186;-66
2023/03/14 01:18:45;;;;;;;10.30;3.22;;;;;;;;;;5026663;28;20266;-66
2023/03/14 01:21:18;;;;;;;8.05;2.30;;;;;;;;;;5029448;28;20395;-66
2023/03/14 01:23:44;;;;;;;11.95;2.20;;;;;;;;;;5028214;28;20182;-66
2023/03/14 01:26:11;;;;;;;10.80;2.38;;;;;;;;;;5023540;28;20212;-71
2023/03/14 01:28:37;;;;;;;8.30;2.88;;;;;;;;;;5018575;28;20236;-71
2023/03/14 01:31:04;;;;;;;7.95;2.55;;;;;;;;;;5025878;28;20194;-71
2023/03/14 01:33:30;;;;;;;7.35;2.30;;;;;;;;;;5029117;28;20327;-70
2023/03/14 01:35:55;;;;;;;10.18;2.97;;;;;;;;;;5029069;28;20259;-72
2023/03/14 01:38:21;;;;;;;9.43;2.42;;;;;;;;;;5022717;28;20228;-72
2023/03/14 01:40:46;;;;;;;9.48;2.47;;;;;;;;;;5024700;28;20205;-72
2023/03/14 01:43:18;;;;;;;9.43;2.55;;;;;;;;;;5014103;28;20256;-73
2023/03/14 01:46:14;;;;;;;4.78;2.10;;;;;;;;;;5025559;28;20198;-71
2023/03/14 01:48:44;;;;;;;9.35;2.25;;;;;;;;;;5029346;28;20293;-71
2023/03/14 01:51:16;;;;;;;6.57;2.30;;;;;;;;;;5026401;28;20325;-69
2023/03/14 01:53:43;;;;;;;9.48;2.38;;;;;;;;;;5030653;28;20666;-70
2023/03/14 01:56:12;;;;;;;9.10;2.95;;;;;;;;;;5031428;28;20491;-70
2023/03/14 01:58:40;;;;;;;12.07;2.53;;;;;;;;;;5029201;28;20198;-69
2023/03/14 02:01:06;;;;;;;8.65;2.10;;;;;;;;;;5024574;28;20210;-69
2023/03/14 02:03:38;;;;;;;10.52;2.40;;;;;;;;;;5018921;28;20296;-68
2023/03/14 02:06:07;;;;;;;7.95;2.53;;;;;;;;;;5017672;28;20269;-70
2023/03/14 02:08:34;;;;;;;8.07;2.15;;;;;;;;;;5023359;28;20210;-68
2023/03/14 02:11:00;;;;;;;11.68;3.22;;;;;;;;;;5018577;28;20186;-68
2023/03/14 02:13:26;;;;;;;12.00;2.00;;;;;;;;;;5024360;28;20202;-68
2023/03/14 02:15:51;;;;;;;8.38;2.45;;;;;;;;;;5025479;28;20186;-68
2023/03/14 02:18:17;;;;;;;9.15;2.30;;;;;;;;;;5024106;28;20200;-68
2023/03/14 02:21:18;;;;;;;10.70;2.80;;;;;;;;;;5024757;28;20194;-68
2023/03/14 02:23:53;;;;;;;10.23;2.20;;;;;;;;;;5023111;28;20304;-68
2023/03/14 02:26:31;;;;;;;12.55;2.17;;;;;;;;;;5020516;28;20217;-68
2023/03/14 02:28:57;;;;;;;5.85;1.77;;;;;;;;;;5025420;28;20190;-68
2023/03/14 02:31:23;;;;;;;7.38;1.77;;;;;;;;;;5024698;28;20323;-72
2023/03/14 02:33:49;;;;;;;12.50;2.30;;;;;;;;;;5019968;28;20555;-72
2023/03/14 02:36:15;;;;;;;13.30;2.70;;;;;;;;;;5022584;28;20182;-72
2023/03/14 02:38:53;;;;;;;9.15;2.58;;;;;;;;;;5022121;28;20200;-71
2023/03/14 02:41:18;;;;;;;9.38;2.50;;;;;;;;;;5013750;28;20194;-71
2023/03/14 02:43:44;;;;;;;12.90;2.78;;;;;;;;;;5026861;28;20279;-69
2023/03/14 02:46:16;;;;;;;8.90;2.50;;;;;;;;;;5023657;28;20182;-70
2023/03/14 02:48:47;;;;;;;6.07;2.70;;;;;;;;;;5013578;28;20683;-70
2023/03/14 02:51:14;;;;;;;8.27;2.90;;;;;;;;;;5016957;28;20662;-70
2023/03/14 02:53:41;;;;;;;13.90;3.35;;;;;;;;;;5024346;28;20194;-70
2023/03/14 02:56:07;;;;;;;10.93;3.03;;;;;;;;;;5027181;28;20186;-68
2023/03/14 02:58:33;;;;;;;9.98;2.83;;;;;;;;;;5020148;28;20569;-69
2023/03/14 03:00:58;;;;;;;11.63;3.25;;;;;;;;;;5022298;28;20220;-69
2023/03/14 03:03:24;;;;;;;14.75;3.45;;;;;;;;;;5022180;28;20256;-69
2023/03/14 03:05:51;;;;;;;12.35;3.05;;;;;;;;;;5024454;28;20696;-70
2023/03/14 03:08:20;;;;;;;7.47;2.53;;;;;;;;;;5025396;28;20546;-69
2023/03/14 03:10:46;;;;;;;12.32;3.35;;;;;;;;;;5025639;28;20312;-69
2023/03/14 03:13:11;;;;;;;12.07;2.65;;;;;;;;;;5031479;28;20732;-69
2023/03/14 03:15:37;;;;;;;9.82;2.20;;;;;;;;;;5018670;28;20677;-68
2023/03/14 03:18:03;;;;;;;8.45;2.20;;;;;;;;;;5021451;28;20190;-68
2023/03/14 03:20:28;;;;;;;11.30;2.22;;;;;;;;;;5025697;28;20216;-69
2023/03/14 03:22:54;;;;;;;6.75;2.40;;;;;;;;;;5014488;28;20297;-68
2023/03/14 03:25:19;;;;;;;6.30;2.20;;;;;;;;;;5021681;28;20194;-68
2023/03/14 03:27:45;;;;;;;8.82;2.33;;;;;;;;;;5022358;28;20259;-68
2023/03/14 03:30:10;;;;;;;8.07;2.58;;;;;;;;;;5028577;28;20277;-68
2023/03/14 03:32:36;;;;;;;8.43;2.30;;;;;;;;;;5025785;28;20185;-68
2023/03/14 03:35:03;;;;;;;6.97;2.20;;;;;;;;;;5027018;28;20683;-68
2023/03/14 03:37:30;;;;;;;7.65;2.00;;;;;;;;;;5016799;28;20194;-68
2023/03/14 03:39:56;;;;;;;5.15;1.98;;;;;;;;;;5027535;28;20634;-67
2023/03/14 03:42:21;;;;;;;8.23;2.00;;;;;;;;;;5035630;28;20281;-68
2023/03/14 03:44:47;;;;;;;6.65;2.17;;;;;;;;;;5026685;28;20197;-67
2023/03/14 03:47:12;;;;;;;4.18;1.30;;;;;;;;;;5021911;28;20293;-67
2023/03/14 03:49:38;;;;;;;8.65;2.00;;;;;;;;;;5025667;28;20205;-68
2023/03/14 03:52:03;;;;;;;9.20;1.90;;;;;;;;;;5025412;28;20197;-68
2023/03/14 03:54:29;;;;;;;10.07;2.42;;;;;;;;;;5027242;28;20204;-68
2023/03/14 03:56:55;;;;;;;7.32;2.30;;;;;;;;;;5027286;28;20317;-67
2023/03/14 03:59:20;;;;;;;9.98;2.17;;;;;;;;;;5024626;28;20190;-68
2023/03/14 04:01:46;;;;;;;8.95;2.28;;;;;;;;;;5026937;28;20292;-67
2023/03/14 04:04:11;;;;;;;4.78;1.92;;;;;;;;;;5024317;28;20669;-67
2023/03/14 04:06:37;;;;;;;10.52;2.28;;;;;;;;;;5027260;28;20209;-67
2023/03/14 04:09:03;;;;;;;8.15;2.15;;;;;;;;;;5027076;28;20209;-67
2023/03/14 04:11:28;;;;;;;9.98;2.38;;;;;;;;;;5022824;28;20194;-67
2023/03/14 04:13:54;;;;;;;9.90;1.90;;;;;;;;;;5021248;28;20194;-67
2023/03/14 04:16:22;;;;;;;9.95;1.90;;;;;;;;;;5012127;28;20197;-67
2023/03/14 04:18:48;;;;;;;9.93;2.30;;;;;;;;;;5019550;28;20341;-67
2023/03/14 04:21:13;;;;;;;11.95;2.05;;;;;;;;;;5023155;28;20281;-67
2023/03/14 04:23:39;;;;;;;5.07;1.90;;;;;;;;;;5012261;28;20197;-67
2023/03/14 04:26:05;;;;;;;14.77;2.60;;;;;;;;;;5024207;28;20194;-67
2023/03/14 04:28:30;;;;;;;7.55;1.58;;;;;;;;;;5015601;28;20230;-67
2023/03/14 04:30:55;;;;;;;7.57;1.83;;;;;;;;;;5020503;28;20233;-67
2023/03/14 04:33:21;;;;;;;11.77;2.05;;;;;;;;;;5012818;28;20225;-67
2023/03/14 04:35:47;;;;;;;8.73;2.20;;;;;;;;;;5018212;28;20204;-67
2023/03/14 04:38:13;;;;;;;13.63;2.25;;;;;;;;;;5025934;28;20263;-68
2023/03/14 04:40:42;;;;;;;9.73;2.30;;;;;;;;;;5019029;28;20316;-68
2023/03/14 04:43:11;;;;;;;11.90;2.05;;;;;;;;;;5018478;28;20277;-68
2023/03/14 04:45:41;;;;;;;13.15;2.25;;;;;;;;;;5022154;28;20183;-68
2023/03/14 04:48:06;;;;;;;9.05;2.22;;;;;;;;;;5026955;28;20209;-68
2023/03/14 04:50:31;;;;;;;9.95;1.80;;;;;;;;;;5021710;28;20208;-68
2023/03/14 04:52:57;;;;;;;11.30;1.67;;;;;;;;;;5013185;28;20197;-68
2023/03/14 04:55:22;;;;;;;8.13;2.05;;;;;;;;;;5025929;28;20190;-68
2023/03/14 04:57:47;;;;;;;7.53;1.35;;;;;;;;;;5017929;28;20216;-67
2023/03/14 05:00:13;;;;;;;13.40;2.50;;;;;;;;;;5030977;28;20198;-67
2023/03/14 05:02:38;;;;;;;6.55;2.00;;;;;;;;;;5019262;28;20215;-67
2023/03/14 05:05:04;;;;;;;7.75;1.42;;;;;;;;;;5023377;28;20607;-67
2023/03/14 05:07:29;;;;;;;12.95;2.85;;;;;;;;;;5015363;28;20233;-68
2023/03/14 05:09:55;;;;;;;11.48;2.28;;;;;;;;;;5024311;28;20197;-67
2023/03/14 05:12:20;;;;;;;8.55;1.77;;;;;;;;;;5030994;28;20597;-67
2023/03/14 05:14:46;;;;;;;10.50;2.00;;;;;;;;;;5027407;28;20186;-67
2023/03/14 05:17:14;;;;;;;9.13;1.67;;;;;;;;;;5018300;28;20190;-67
2023/03/14 05:19:40;;;;;;;9.73;1.92;;;;;;;;;;5021875;28;20652;-67
2023/03/14 05:22:05;;;;;;;12.52;2.22;;;;;;;;;;5025609;28;20624;-67
2023/03/14 05:24:31;;;;;;;9.93;2.10;;;;;;;;;;5020721;28;20225;-68
2023/03/14 05:26:56;;;;;;;7.35;2.40;;;;;;;;;;5028146;28;20218;-68
2023/03/14 05:29:21;;;;;;;10.77;2.33;;;;;;;;;;5033420;28;20234;-67
2023/03/14 05:31:47;;;;;;;10.88;2.45;;;;;;;;;;5023120;28;20717;-68
2023/03/14 05:34:12;;;;;;;14.55;2.53;;;;;;;;;;5028349;28;20190;-68
2023/03/14 05:36:38;;;;;;;9.80;2.17;;;;;;;;;;5025096;28;20248;-67
2023/03/14 05:39:03;;;;;;;11.70;1.98;;;;;;;;;;5027593;28;20686;-67
2023/03/14 05:41:29;;;;;;;10.88;2.15;;;;;;;;;;5028571;28;20197;-67
2023/03/14 05:43:54;;;;;;;10.52;1.70;;;;;;;;;;5026903;28;20194;-67
2023/03/14 05:46:19;;;;;;;15.70;2.08;;;;;;;;;;5024248;28;20190;-67
2023/03/14 05:48:45;;;;;;;13.98;2.22;;;;;;;;;;5013898;28;20717;-67
2023/03/14 05:51:10;;;;;;;10.02;2.45;;;;;;;;;;5019592;28;20282;-67
2023/03/14 05:53:35;;;;;;;14.20;2.22;;;;;;;;;;5026485;28;20194;-67
2023/03/14 05:56:01;;;;;;;13.32;1.90;;;;;;;;;;5023166;28;20599;-67
2023/03/14 05:58:27;;;;;;;12.07;2.15;;;;;;;;;;5020840;28;20220;-67
2023/03/14 06:00:52;;;;;;;10.85;2.25;;;;;;;;;;5017834;28;20703;-67
2023/03/14 06:03:18;;;;;;;11.68;2.25;;;;;;;;;;5026705;28;20353;-67
2023/03/14 06:05:43;;;;;;;10.55;2.08;;;;;;;;;;5026036;28;20186;-67
2023/03/14 06:08:08;;;;;;;10.30;1.58;;;;;;;;;;5018669;28;20213;-67
2023/03/14 06:10:35;;;;;;;11.35;1.90;;;;;;;;;;5007209;28;20198;-67
2023/03/14 06:13:01;;;;;;;17.42;2.20;;;;;;;;;;5018207;28;20213;-67
2023/03/14 06:15:26;;;;;;;8.98;1.70;;;;;;;;;;5020075;28;20518;-67
2023/03/14 06:17:54;;;;;;;17.52;1.80;;;;;;;;;;5022051;28;20655;-67
2023/03/14 06:20:19;;;;;;;11.07;1.80;;;;;;;;;;5017673;28;20182;-67
2023/03/14 06:22:45;;;;;;;11.18;1.65;;;;;;;;;;5020999;28;20544;-67
2023/03/14 06:25:10;;;;;;;10.20;2.00;;;;;;;;;;5015426;28;20305;-67
2023/03/14 06:27:35;;;;;;;9.20;1.85;;;;;;;;;;5027636;28;20277;-67
2023/03/14 06:30:01;;;;;;;5.88;1.48;;;;;;;;;;5002018;28;20212;-67
2023/03/14 06:32:26;;;;;;;7.45;1.90;;;;;;;;;;5027948;28;20197;-67
2023/03/14 06:34:53;;;;;;;9.35;1.50;;;;;;;;;;5029252;28;20414;-67
2023/03/14 06:37:18;;;;;;;10.07;2.10;;;;;;;;;;5026348;28;20603;-67
2023/03/14 06:39:44;;;;;;;12.10;2.00;;;;;;;;;;5011374;28;20209;-67
2023/03/14 06:42:10;;;;;;;6.82;1.52;;;;;;;;;;5028423;28;21251;-67
2023/03/14 06:44:35;;;;;;;6.82;2.17;;;;;;;;;;5019911;28;20657;-67
2023/03/14 06:47:01;;;;;;;10.40;1.95;;;;;;;;;;5019591;28;20211;-67
2023/03/14 06:49:26;;;;;;;7.93;1.75;;;;;;;;;;5022693;28;20186;-69
2023/03/14 06:51:51;;;;;;;8.10;1.50;;;;;;;;;;5015811;28;20676;-69
2023/03/14 06:54:17;;;;;;;7.15;1.88;;;;;;;;;;5020650;28;20179;-69
2023/03/14 06:56:42;;;;;;;6.93;1.83;;;;;;;;;;5020871;28;20546;-69
2023/03/14 06:59:08;;;;;;;6.20;2.00;;;;;;;;;;5022762;28;20225;-70
2023/03/14 07:01:34;;;;;;;11.85;1.85;;;;;;;;;;5027608;28;20221;-69
2023/03/14 07:04:00;;;;;;;8.30;1.80;;;;;;;;;;5015467;28;20187;-69
2023/03/14 07:06:26;;;;;;;6.65;1.52;;;;;;;;;;5024584;28;20190;-69
2023/03/14 07:08:51;;;;;;;7.40;1.85;;;;;;;;;;5019854;28;20210;-68
2023/03/14 07:11:17;;;;;;;6.70;2.13;;;;;;;;;;5018172;28;20340;-69
2023/03/14 07:13:42;;;;;;;10.25;2.00;;;;;;;;;;5021189;28;20329;-70
2023/03/14 07:16:08;;;;;;;9.35;2.53;;;;;;;;;;5017477;28;20204;-69
2023/03/14 07:18:34;;;;;;;6.30;1.98;;;;;;;;;;5020690;28;20198;-68
2023/03/14 07:20:59;;;;;;;4.35;1.92;;;;;;;;;;5023594;28;20285;-69
2023/03/14 07:23:25;;;;;;;10.90;2.28;;;;;;;;;;5021901;28;20274;-70
2023/03/14 07:25:51;;;;;;;6.95;2.00;;;;;;;;;;5017074;28;20238;-69
2023/03/14 07:28:17;;;;;;;6.70;2.30;;;;;;;;;;5014530;28;20395;-69
2023/03/14 07:30:42;;;;;;;5.13;2.60;;;;;;;;;;5018470;28;20734;-69
2023/03/14 07:33:08;;;;;;;7.40;1.92;;;;;;;;;;5013273;28;20309;-70
2023/03/14 07:35:33;;;;;;;8.32;2.47;;;;;;;;;;5013739;28;20190;-69
2023/03/14 07:37:59;;;;;;;8.20;2.58;;;;;;;;;;5025441;28;20189;-68
2023/03/14 07:40:24;;;;;;;6.40;2.50;;;;;;;;;;5016253;28;20269;-69
2023/03/14 07:42:49;;;;;;;7.38;2.75;;;;;;;;;;5019187;28;20194;-69
2023/03/14 07:45:15;;;;;;;5.78;2.47;;;;;;;;;;5020919;28;20773;-70
2023/03/14 07:47:41;;;;;;;8.65;2.88;;;;;;;;;;5015296;28;20244;-70
2023/03/14 07:50:07;;;;;;;5.47;2.60;;;;;;;;;;5026773;28;20190;-70
2023/03/14 07:52:32;;;;;;;6.78;3.05;;;;;;;;;;5013878;28;20194;-70
2023/03/14 07:54:57;;;;;;;11.35;3.40;;;;;;;;;;5028425;28;20664;-70
2023/03/14 07:57:24;;;;;;;9.52;3.45;;;;;;;;;;5018992;28;20186;-71
2023/03/14 07:59:49;;;;;;;4.60;2.72;;;;;;;;;;5015766;28;20194;-72
2023/03/14 08:02:15;;;;;;;11.75;2.92;;;;;;;;;;5010838;28;20208;-73
2023/03/14 08:04:40;;;;;;;3.60;1.15;;;;;;;;;;5010105;28;20194;-74
2023/03/14 08:07:06;;;;;;;3.83;0.40;;;;;;;;;;5022133;28;20245;-75
2023/03/14 08:09:31;;;;;;;0.75;0.40;;;;;;;;;;5022279;28;20659;-72
2023/03/14 08:11:57;;;;;;;2.20;0.47;;;;;;;;;;5010526;28;20186;-72
2023/03/14 08:14:25;;;;;;;2.17;0.40;;;;;;;;;;5030551;28;20178;-73
2023/03/14 08:16:50;;;;;;;2.17;0.73;;;;;;;;;;5021875;28;20209;-72
2023/03/14 08:19:16;;;;;;;2.30;0.73;;;;;;;;;;5018255;28;20186;-73
2023/03/14 08:21:42;;;;;;;1.85;0.60;;;;;;;;;;5024374;28;20186;-72
2023/03/14 08:24:07;;;;;;;3.15;0.73;;;;;;;;;;5010326;28;20183;-73
2023/03/14 08:26:32;;;;;;;3.90;1.13;;;;;;;;;;5007529;28;20229;-71
2023/03/14 08:28:58;;;;;;;2.30;1.20;;;;;;;;;;5017524;28;20272;-71
2023/03/14 08:31:23;;;;;;;4.00;1.25;;;;;;;;;;5013197;28;20198;-72
2023/03/14 08:33:49;;;;;;;3.33;1.65;;;;;;;;;;5011330;28;20190;-72
2023/03/14 08:36:14;;;;;;;3.22;1.50;;;;;;;;;;5023842;28;20282;-72
2023/03/14 08:38:42;;;;;;;2.92;1.30;;;;;;;;;;5014020;28;20241;-72
2023/03/14 08:41:08;;;;;;;3.58;1.35;;;;;;;;;;5020464;28;20635;-72
2023/03/14 08:43:33;;;;;;;2.92;0.90;;;;;;;;;;5023258;28;20198;-72
2023/03/14 08:46:00;;;;;;;6.40;1.02;;;;;;;;;;5012610;28;20198;-72
2023/03/14 08:48:25;;;;;;;2.50;0.80;;;;;;;;;;5012159;28;20186;-74
2023/03/14 08:50:51;;;;;;;2.83;0.60;;;;;;;;;;5012118;28;20201;-74
2023/03/14 08:53:16;;;;;;;3.65;0.85;;;;;;;;;;5017789;28;20245;-73
2023/03/14 08:55:42;;;;;;;3.65;0.52;;;;;;;;;;5010373;28;20213;-74
2023/03/14 08:58:07;;;;;;;8.02;0.50;;;;;;;;;;5016001;28;20686;-74
2023/03/14 09:00:32;;;;;;;3.50;0.50;;;;;;;;;;5008657;28;20222;-77
2023/03/14 09:02:58;;;;;;;3.13;0.40;;;;;;;;;;5019303;28;20509;-74
2023/03/14 09:05:23;;;;;;;3.42;0.50;;;;;;;;;;5026870;28;20212;-74
2023/03/14 09:07:49;;;;;;;3.60;0.40;;;;;;;;;;5017362;28;20179;-76
2023/03/14 09:10:14;;;;;;;1.93;0.37;;;;;;;;;;5013236;28;20190;-74
2023/03/14 09:12:39;;;;;;;2.10;0.30;;;;;;;;;;5023982;28;20201;-74
2023/03/14 09:15:05;;;;;;;3.33;0.37;;;;;;;;;;5020882;28;20191;-72
2023/03/14 09:17:31;;;;;;;2.50;0.40;;;;;;;;;;5017602;28;20363;-72
2023/03/14 09:19:57;;;;;;;1.83;0.40;;;;;;;;;;5018496;28;20190;-72
2023/03/14 09:22:22;;;;;;;1.37;0.30;;;;;;;;;;5017387;28;20197;-73
2023/03/14 09:24:47;;;;;;;1.70;0.40;;;;;;;;;;5015123;28;20563;-77
2023/03/14 09:27:13;;;;;;;1.53;0.40;;;;;;;;;;5017703;28;20304;-76
2023/03/14 09:29:38;;;;;;;1.13;0.10;;;;;;;;;;5023439;28;20220;-73
2023/03/14 09:32:03;;;;;;;2.03;0.37;;;;;;;;;;5025137;28;20290;-74
2023/03/14 09:34:29;;;;;;;0.93;0.20;;;;;;;;;;5018239;28;20700;-71
2023/03/14 09:36:54;;;;;;;2.40;0.40;;;;;;;;;;5022603;28;20268;-70
2023/03/14 09:39:20;;;;;;;1.53;0.40;;;;;;;;;;5019046;28;20190;-70
2023/03/14 09:41:51;;;;;;;2.43;0.40;;;;;;;;;;5030600;28;20271;-70
2023/03/14 09:44:30;;;;;;;3.03;1.07;;;;;;;;;;5017540;28;20239;-70
2023/03/14 09:47:00;;;;;;;2.40;0.30;;;;;;;;;;5024697;28;20650;-70
2023/03/14 09:49:34;;;;;;;1.80;0.30;;;;;;;;;;5022841;28;20610;-71
2023/03/14 09:52:04;;;;;;;5.40;0.33;;;;;;;;;;5019671;28;20213;-70
2023/03/14 09:54:31;;;;;;;5.57;0.33;;;;;;;;;;5011010;28;20282;-69
2023/03/14 09:56:57;;;;;;;1.40;0.20;;;;;;;;;;5014399;28;20190;-69
2023/03/14 09:59:22;;;;;;;5.70;0.43;;;;;;;;;;5030564;28;20186;-71
2023/03/14 10:01:48;;;;;;;1.27;0.20;;;;;;;;;;5023221;28;20572;-70
2023/03/14 10:04:20;;;;;;;2.83;0.23;;;;;;;;;;5016085;28;20336;-68
2023/03/14 10:06:47;;;;;;;2.90;0.33;;;;;;;;;;5021902;28;20206;-69
2023/03/14 10:09:26;;;;;;;5.73;0.53;;;;;;;;;;5034408;28;20280;-69
2023/03/14 10:11:59;;;;;;;1.80;0.40;;;;;;;;;;5030667;28;20186;-73
2023/03/14 10:14:35;;;;;;;2.38;0.55;;;;;;;;;;5028451;28;20794;-69
2023/03/14 10:17:09;;;;;;;4.95;1.05;;;;;;;;;;5009426;28;20716;-69
2023/03/14 10:19:36;;;;;;;3.75;0.60;;;;;;;;;;5013674;28;20650;-69
2023/03/14 10:22:04;;;;;;;5.17;0.53;;;;;;;;;;5021664;28;20200;-69
2023/03/14 10:24:33;;;;;;;6.05;0.90;;;;;;;;;;5016053;28;20229;-69
2023/03/14 10:27:04;;;;;;;5.90;1.00;;;;;;;;;;5029835;28;20229;-69
2023/03/14 10:29:55;;;;;;;8.70;1.00;;;;;;;;;;5014899;28;20513;-69
2023/03/14 10:32:22;;;;;;;13.33;1.07;;;;;;;;;;5024092;28;20182;-69
2023/03/14 10:35:03;;;;;;;13.00;1.17;;;;;;;;;;5030244;28;20842;-68
2023/03/14 10:37:29;;;;;;;12.40;1.27;;;;;;;;;;5020172;28;20205;-69
2023/03/14 10:39:58;;;;;;;9.85;1.88;;;;;;;;;;5029813;28;20507;-68
2023/03/14 10:42:29;;;;;;;11.60;1.90;;;;;;;;;;5029258;28;20181;-69
2023/03/14 10:44:59;;;;;;;12.25;1.67;;;;;;;;;;5029380;28;20205;-69
2023/03/14 10:47:28;;;;;;;11.90;2.03;;;;;;;;;;5023907;28;20194;-68
2023/03/14 10:49:54;;;;;;;15.77;1.67;;;;;;;;;;5009931;28;20199;-68
2023/03/14 10:52:29;;;;;;;7.95;1.13;;;;;;;;;;5013273;28;20182;-70
2023/03/14 10:54:58;;;;;;;10.68;1.48;;;;;;;;;;5029217;28;20550;-68
2023/03/14 10:57:24;;;;;;;12.90;1.60;;;;;;;;;;5028755;28;20202;-69
2023/03/14 10:59:50;;;;;;;15.38;1.55;;;;;;;;;;5020981;28;20686;-68
2023/03/14 11:02:34;;;;;;;10.30;1.38;;;;;;;;;;5015038;28;20194;-69
2023/03/14 11:05:11;;;;;;;14.45;1.67;;;;;;;;;;5011102;28;20262;-69
2023/03/14 11:07:43;;;;;;;9.48;1.27;;;;;;;;;;5015717;28;20190;-69
2023/03/14 11:10:18;;;;;;;13.60;1.58;;;;;;;;;;5029006;28;20600;-69
2023/03/14 11:13:14;;;;;;;13.18;1.73;;;;;;;;;;5020587;28;20606;-70
2023/03/14 11:15:50;;;;;;;17.03;2.00;;;;;;;;;;5008394;28;21039;-69
2023/03/14 11:18:37;;;;;;;15.37;2.37;;;;;;;;;;5020562;28;20218;-69
2023/03/14 11:21:13;;;;;;;15.73;1.93;;;;;;;;;;5013970;28;20194;-69
2023/03/14 11:24:00;;;;;;;28.80;2.60;;;;;;;;;;5022608;28;20494;-69
2023/03/14 11:27:01;;;;;;;29.53;2.90;;;;;;;;;;5024701;28;20186;-69
2023/03/14 11:29:46;;;;;;;17.07;3.13;;;;;;;;;;5013938;28;20420;-68
2023/03/14 11:32:17;;;;;;;14.50;3.00;;;;;;;;;;5024651;28;20181;-69
2023/03/14 11:34:53;;;;;;;21.47;2.30;;;;;;;;;;5015349;28;20186;-70
2023/03/14 11:37:24;;;;;;;25.73;2.73;;;;;;;;;;5028256;28;20244;-68
2023/03/14 11:40:03;;;;;;;14.83;2.27;;;;;;;;;;5029919;28;20246;-68
2023/03/14 11:42:29;;;;;;;22.53;2.60;;;;;;;;;;5028382;28;20190;-67
2023/03/14 11:44:57;;;;;;;18.20;2.37;;;;;;;;;;5028809;28;20186;-69
2023/03/14 11:47:34;;;;;;;19.00;2.20;;;;;;;;;;5016884;28;20236;-68
2023/03/14 11:50:18;;;;;;;21.10;3.07;;;;;;;;;;5028375;28;20216;-68
2023/03/14 11:53:02;;;;;;;15.18;2.17;;;;;;;;;;5014725;28;20189;-68
2023/03/14 11:55:32;;;;;;;20.55;2.42;;;;;;;;;;5027123;28;20703;-69
2023/03/14 11:58:09;;;;;;;17.25;2.42;;;;;;;;;;5013136;28;20285;-68
2023/03/14 12:00:35;;;;;;;18.75;2.40;;;;;;;;;;5026914;28;20629;-68
2023/03/14 12:03:22;;;;;;;16.98;2.38;;;;;;;;;;5033133;28;20197;-69
2023/03/14 12:06:23;;;;;;;12.82;2.38;;;;;;;;;;5028123;28;20543;-68
2023/03/14 12:08:57;;;;;;;11.73;1.60;;;;;;;;;;5027600;28;20232;-68
2023/03/14 12:11:43;;;;;;;16.10;2.03;;;;;;;;;;5014089;28;20273;-71
2023/03/14 12:14:41;;;;;;;15.10;1.67;;;;;;;;;;5026600;28;20209;-68
2023/03/14 12:17:38;;;;;;;7.30;1.30;;;;;;;;;;5004104;28;20203;-67
2023/03/14 12:20:15;;;;;;;13.20;2.25;;;;;;;;;;5012971;28;20217;-68
2023/03/14 12:22:50;;;;;;;14.10;1.92;;;;;;;;;;5013634;28;20662;-68
2023/03/14 12:25:22;;;;;;;8.18;1.40;;;;;;;;;;5022443;28;20186;-69
2023/03/14 12:27:56;;;;;;;17.48;2.25;;;;;;;;;;5014668;28;20234;-69
2023/03/14 12:30:38;;;;;;;12.80;1.58;;;;;;;;;;5007810;28;20212;-68
2023/03/14 12:33:13;;;;;;;5.28;1.10;;;;;;;;;;5018028;28;20182;-69
2023/03/14 12:35:38;;;;;;;13.13;1.98;;;;;;;;;;5020981;28;20287;-68
2023/03/14 12:38:10;;;;;;;11.15;1.50;;;;;;;;;;5028033;28;20289;-69
2023/03/14 12:40:41;;;;;;;7.93;1.60;;;;;;;;;;5026291;28;20697;-69
2023/03/14 12:43:26;;;;;;;15.30;1.42;;;;;;;;;;5027517;28;20257;-68
2023/03/14 12:46:16;;;;;;;10.60;1.33;;;;;;;;;;5021269;28;20616;-69
2023/03/14 12:48:44;;;;;;;11.40;2.05;;;;;;;;;;5021684;28;20229;-68
2023/03/14 12:51:16;;;;;;;6.95;0.98;;;;;;;;;;5028142;28;20273;-69
2023/03/14 12:54:03;;;;;;;7.20;1.80;;;;;;;;;;5027131;28;20849;-69
2023/03/14 12:57:01;;;;;;;12.27;1.33;;;;;;;;;;5015385;28;20194;-68
2023/03/14 12:59:37;;;;;;;11.45;1.30;;;;;;;;;;5024459;28;20186;-72
2023/03/14 13:02:11;;;;;;;7.60;1.40;;;;;;;;;;5026429;28;20194;-68
2023/03/14 13:04:42;;;;;;;4.97;1.52;;;;;;;;;;5022323;28;20667;-68
2023/03/14 13:07:42;;;;;;;7.78;1.30;;;;;;;;;;5017982;28;20198;-68
2023/03/14 13:10:08;;;;;;;13.67;1.53;;;;;;;;;;5028128;28;20198;-67
2023/03/14 13:13:01;;;;;;;10.10;1.52;;;;;;;;;;5017161;28;20637;-67
2023/03/14 13:15:27;;;;;;;10.35;1.48;;;;;;;;;;5010900;28;20230;-68
2023/03/14 13:17:56;;;;;;;6.07;0.80;;;;;;;;;;5032132;28;20941;-69
2023/03/14 13:20:28;;;;;;;7.10;1.13;;;;;;;;;;5023882;28;20615;-70
2023/03/14 13:22:53;;;;;;;5.88;0.80;;;;;;;;;;5022046;28;20522;-68
2023/03/14 13:25:20;;;;;;;7.05;1.40;;;;;;;;;;5030429;28;20190;-68
2023/03/14 13:27:47;;;;;;;5.53;0.93;;;;;;;;;;5027979;28;20248;-67
2023/03/14 13:30:25;;;;;;;5.68;1.05;;;;;;;;;;5028576;28;20272;-67
2023/03/14 13:32:52;;;;;;;3.47;0.70;;;;;;;;;;5030172;28;20186;-69
2023/03/14 13:35:25;;;;;;;7.22;0.90;;;;;;;;;;5028266;28;20221;-69
2023/03/14 13:37:59;;;;;;;5.28;0.80;;;;;;;;;;5029270;28;20198;-67
2023/03/14 13:40:33;;;;;;;4.45;1.10;;;;;;;;;;5022509;28;20198;-67
2023/03/14 13:43:04;;;;;;;8.90;0.90;;;;;;;;;;5025726;28;20645;-68
2023/03/14 13:45:29;;;;;;;8.07;1.20;;;;;;;;;;5022522;28;20552;-67
2023/03/14 13:47:55;;;;;;;8.05;0.95;;;;;;;;;;5017009;28;20193;-68
2023/03/14 13:50:20;;;;;;;6.38;1.02;;;;;;;;;;5021592;28;20182;-68
2023/03/14 13:52:46;;;;;;;7.28;1.15;;;;;;;;;;5017368;28;20502;-67
2023/03/14 13:55:17;;;;;;;6.60;1.00;;;;;;;;;;5029500;28;20777;-67
2023/03/14 13:57:46;;;;;;;9.88;2.03;;;;;;;;;;5025691;28;20360;-67
2023/03/14 14:00:23;;;;;;;9.75;1.55;;;;;;;;;;5014625;28;20210;-67
2023/03/14 14:02:49;;;;;;;10.02;1.30;;;;;;;;;;5021652;28;20232;-67
2023/03/14 14:05:15;;;;;;;9.60;1.38;;;;;;;;;;5014344;28;20198;-67
2023/03/14 14:07:43;;;;;;;7.47;1.38;;;;;;;;;;5013082;28;20186;-67
2023/03/14 14:10:13;;;;;;;8.80;1.50;;;;;;;;;;5028925;28;20186;-68
2023/03/14 14:12:56;;;;;;;11.63;1.42;;;;;;;;;;5019577;28;20186;-67
2023/03/14 14:15:27;;;;;;;8.68;1.33;;;;;;;;;;5015943;28;20240;-67
2023/03/14 14:17:55;;;;;;;8.68;1.52;;;;;;;;;;5019056;28;20285;-66
2023/03/14 14:20:33;;;;;;;9.57;1.85;;;;;;;;;;5024896;28;20229;-67
2023/03/14 14:23:04;;;;;;;6.82;1.10;;;;;;;;;;5017923;28;20189;-67
2023/03/14 14:25:30;;;;;;;6.93;1.05;;;;;;;;;;5012632;28;20191;-68
2023/03/14 14:27:56;;;;;;;6.25;0.80;;;;;;;;;;5014055;28;20329;-69
2023/03/14 14:30:27;;;;;;;8.10;1.00;;;;;;;;;;5018121;28;20282;-69
2023/03/14 14:32:52;;;;;;;2.80;0.70;;;;;;;;;;5024688;28;20197;-67
2023/03/14 14:35:30;;;;;;;4.25;0.77;;;;;;;;;;5028937;28;20195;-67
2023/03/14 14:37:55;;;;;;;5.17;1.10;;;;;;;;;;5027029;28;20627;-67
2023/03/14 14:40:23;;;;;;;6.88;0.73;;;;;;;;;;5024283;28;20282;-67
2023/03/14 14:42:49;;;;;;;4.53;0.70;;;;;;;;;;5019816;28;20285;-67
2023/03/14 14:45:20;;;;;;;3.88;0.65;;;;;;;;;;5011206;28;20197;-67
2023/03/14 14:48:04;;;;;;;1.65;0.70;;;;;;;;;;5010406;28;20186;-67